Terminal Aerodrome Forecast
Issued by NWS Topeka, KS

Home | Current Version | Previous Version | Text Only | Print | Product List | Glossary On
Versions: 1 2 3 4 5 6 7 8 9 10 11 12 13 14 15 16 17 18
000
FTUS43 KTOP 191700 RRA
TAFTOP
TAF
KTOP 191741Z 1918/2018 05011KT P6SM BKN200
     FM200100 06011KT P6SM VCSH BKN050
     FM200500 05012KT 5SM -RA BR OVC030
     FM200800 03013KT 3SM RA BR OVC007
     FM201400 03012KT 5SM BR OVC009=

USA.gov is the U.S. government's official web portal to all federal, state and local government web resources and services.